createdAt,value
2018-07-31T16:11:05.352Z,157.50
2018-07-31T16:12:05.457Z,146.25
2018-07-31T16:13:05.311Z,135.00
2018-07-31T16:14:05.306Z,168.75
2018-07-31T16:15:05.294Z,180.00
2018-07-31T16:16:05.279Z,168.75
2018-07-31T16:17:05.347Z,157.50
2018-07-31T16:18:05.261Z,151.88
2018-07-31T16:19:05.248Z,140.62
2018-07-31T16:20:05.338Z,146.25
2018-07-31T16:21:05.227Z,140.62
2018-07-31T16:22:05.267Z,151.88
2018-07-31T16:23:05.336Z,230.62
2018-07-31T16:24:05.216Z,247.50
2018-07-31T16:25:05.181Z,213.75
2018-07-31T16:26:05.252Z,185.62
2018-07-31T16:27:05.213Z,185.62
2018-07-31T16:28:05.259Z,213.75
2018-07-31T16:29:05.153Z,185.62
2018-07-31T16:30:05.129Z,185.62
2018-07-31T16:31:05.128Z,185.62
2018-07-31T16:32:05.150Z,213.75
2018-07-31T16:33:05.104Z,208.12
2018-07-31T16:34:05.148Z,185.62
2018-07-31T16:35:05.079Z,191.25
2018-07-31T16:36:05.067Z,168.75
2018-07-31T16:37:05.092Z,146.25
2018-07-31T16:38:05.084Z,140.62
2018-07-31T16:39:05.039Z,146.25
2018-07-31T16:40:05.057Z,140.62
2018-07-31T16:41:05.015Z,168.75
2018-07-31T16:42:05.003Z,185.62
2018-07-31T16:43:05.038Z,196.88
2018-07-31T16:44:05.018Z,191.25
2018-07-31T16:45:05.023Z,191.25
2018-07-31T16:46:05.109Z,180.00
2018-07-31T16:47:05.039Z,180.00
2018-07-31T16:48:05.018Z,163.12
2018-07-31T16:49:04.928Z,163.12
2018-07-31T16:50:04.955Z,146.25
2018-07-31T16:51:04.918Z,118.12
2018-07-31T16:52:04.962Z,90.00
2018-07-31T16:53:04.887Z,73.12
2018-07-31T16:54:04.888Z,78.75
2018-07-31T16:55:04.906Z,90.00
2018-07-31T16:56:04.856Z,90.00
2018-07-31T16:57:04.844Z,90.00
2018-07-31T16:58:04.838Z,84.38
2018-07-31T16:59:04.832Z,84.38
2018-07-31T17:00:04.847Z,84.38
2018-07-31T17:01:05.003Z,95.62
2018-07-31T17:02:04.842Z,123.75
2018-07-31T17:03:04.790Z,157.50
2018-07-31T17:04:04.787Z,106.88
2018-07-31T17:05:04.761Z,129.38
2018-07-31T17:06:04.755Z,95.62
2018-07-31T17:07:04.784Z,84.38
2018-07-31T17:08:04.728Z,78.75
2018-07-31T17:09:04.728Z,78.75
2018-07-31T17:10:04.714Z,106.88
2018-07-31T17:11:04.764Z,123.75
2018-07-31T17:12:04.712Z,112.50
2018-07-31T17:13:04.676Z,101.25
2018-07-31T17:14:04.665Z,78.75
2018-07-31T17:15:04.657Z,73.12
2018-07-31T17:16:04.686Z,67.50
2018-07-31T17:17:04.631Z,67.50
2018-07-31T17:18:04.716Z,67.50
2018-07-31T17:19:04.614Z,73.12
2018-07-31T17:20:04.628Z,73.12
2018-07-31T17:21:04.614Z,67.50
2018-07-31T17:22:04.581Z,67.50
2018-07-31T17:23:04.575Z,67.50
2018-07-31T17:24:04.558Z,67.50
2018-07-31T17:25:04.579Z,67.50
2018-07-31T17:26:04.590Z,67.50
2018-07-31T17:27:04.526Z,61.88
2018-07-31T17:28:04.516Z,61.88
2018-07-31T17:29:04.506Z,61.88
2018-07-31T17:30:04.505Z,56.25
2018-07-31T17:31:04.521Z,56.25
2018-07-31T17:32:04.472Z,56.25
2018-07-31T17:33:04.458Z,61.88
2018-07-31T17:34:04.455Z,61.88
2018-07-31T17:35:04.452Z,61.88
2018-07-31T17:36:04.458Z,61.88
2018-07-31T17:37:04.419Z,61.88
2018-07-31T17:38:04.420Z,56.25
2018-07-31T17:39:04.412Z,56.25
2018-07-31T17:40:04.421Z,56.25
2018-07-31T17:41:04.379Z,56.25
2018-07-31T17:42:04.364Z,50.62
2018-07-31T17:43:04.403Z,50.62
2018-07-31T17:44:04.350Z,50.62
2018-07-31T17:45:04.338Z,50.62
2018-07-31T17:46:04.334Z,50.62
2018-07-31T17:47:04.321Z,50.62
2018-07-31T17:48:04.426Z,45.00
2018-07-31T17:49:04.294Z,45.00
2018-07-31T17:50:04.277Z,45.00
2018-07-31T17:51:04.347Z,45.00
2018-07-31T17:52:04.303Z,50.62
2018-07-31T17:53:04.251Z,50.62
2018-07-31T17:54:04.245Z,45.00
2018-07-31T17:55:04.236Z,45.00
2018-07-31T17:56:04.248Z,45.00
2018-07-31T17:57:04.220Z,45.00
2018-07-31T17:58:04.211Z,45.00
2018-07-31T17:59:04.204Z,45.00
2018-07-31T18:00:04.198Z,39.38
2018-07-31T18:01:04.200Z,39.38
2018-07-31T18:02:04.153Z,39.38
2018-07-31T18:03:04.152Z,39.38
2018-07-31T18:04:04.165Z,33.75
2018-07-31T18:05:04.124Z,33.75
2018-07-31T18:06:04.110Z,33.75
2018-07-31T18:07:04.131Z,33.75
2018-07-31T18:08:04.124Z,33.75
2018-07-31T18:09:04.083Z,33.75
2018-07-31T18:10:04.080Z,33.75
2018-07-31T18:11:04.064Z,33.75
2018-07-31T18:12:04.094Z,33.75
2018-07-31T18:13:04.044Z,33.75
2018-07-31T18:14:04.086Z,33.75
2018-07-31T18:15:04.057Z,33.75
2018-07-31T18:16:04.004Z,33.75
2018-07-31T18:17:03.993Z,28.12
2018-07-31T18:18:03.979Z,28.12
2018-07-31T18:19:04.030Z,28.12
2018-07-31T18:20:03.968Z,28.12
2018-07-31T18:21:03.953Z,28.12
2018-07-31T18:22:03.944Z,28.12
2018-07-31T18:23:03.928Z,28.12
2018-07-31T18:24:03.996Z,28.12
2018-07-31T18:25:03.919Z,28.12
2018-07-31T18:26:03.893Z,22.50
2018-07-31T18:27:03.965Z,22.50
2018-07-31T18:28:03.921Z,22.50
2018-07-31T18:29:03.891Z,22.50
2018-07-31T18:30:03.892Z,22.50
2018-07-31T18:31:03.892Z,22.50
2018-07-31T18:32:03.832Z,22.50
2018-07-31T18:33:03.831Z,22.50
2018-07-31T18:34:03.854Z,22.50
2018-07-31T18:35:03.827Z,22.50
2018-07-31T18:36:03.791Z,22.50
2018-07-31T18:37:03.781Z,22.50
2018-07-31T18:38:03.794Z,22.50
2018-07-31T18:39:03.783Z,22.50
2018-07-31T18:40:03.742Z,22.50
2018-07-31T18:41:03.825Z,22.50
2018-07-31T18:42:03.718Z,22.50
2018-07-31T18:43:03.715Z,22.50
2018-07-31T18:44:03.703Z,22.50
2018-07-31T18:45:03.686Z,22.50
2018-07-31T18:46:03.721Z,22.50
2018-07-31T18:47:03.777Z,22.50
2018-07-31T18:48:03.662Z,22.50
2018-07-31T18:49:03.643Z,22.50
2018-07-31T18:50:03.669Z,22.50
2018-07-31T18:51:03.662Z,16.88
2018-07-31T18:52:03.613Z,16.88
2018-07-31T18:53:03.605Z,16.88
2018-07-31T18:54:03.625Z,16.88
2018-07-31T18:55:03.593Z,16.88
2018-07-31T18:56:03.588Z,16.88
2018-07-31T18:57:03.608Z,16.88
2018-07-31T18:58:03.555Z,16.88
2018-07-31T18:59:03.545Z,11.25
2018-07-31T19:00:03.539Z,11.25
2018-07-31T19:01:03.550Z,11.25
2018-07-31T19:02:03.541Z,11.25
2018-07-31T19:03:03.495Z,11.25
2018-07-31T19:04:03.488Z,11.25
2018-07-31T19:05:03.479Z,5.62
2018-07-31T19:06:03.486Z,5.62
2018-07-31T19:07:03.498Z,5.62
2018-07-31T19:08:03.446Z,5.62
2018-07-31T19:09:03.432Z,5.62
2018-07-31T19:10:03.466Z,5.62
2018-07-31T19:11:03.473Z,5.62
2018-07-31T19:12:03.410Z,5.62
2018-07-31T19:13:03.437Z,5.62
2018-07-31T19:14:03.382Z,5.62
2018-07-31T19:15:03.394Z,5.62
2018-07-31T19:16:03.359Z,0.00
2018-07-31T19:17:03.343Z,0.00
2018-07-31T19:18:03.333Z,0.00
2018-07-31T19:19:03.366Z,0.00
2018-07-31T19:20:03.323Z,0.00
2018-07-31T19:21:03.331Z,0.00
2018-07-31T19:22:03.295Z,0.00
2018-07-31T19:23:03.294Z,0.00
2018-07-31T19:24:03.302Z,0.00
2018-07-31T19:25:03.264Z,0.00
2018-07-31T19:26:03.282Z,0.00
2018-07-31T19:27:03.329Z,0.00
2018-07-31T19:28:03.326Z,0.00
2018-07-31T19:29:03.215Z,0.00
2018-07-31T19:30:03.214Z,0.00
2018-07-31T19:31:03.239Z,0.00
2018-07-31T19:32:03.191Z,0.00
2018-07-31T19:33:03.226Z,0.00
2018-07-31T19:34:03.191Z,0.00
2018-07-31T19:35:03.157Z,0.00
2018-07-31T19:36:03.186Z,0.00
2018-07-31T19:37:03.162Z,0.00
2018-07-31T19:38:03.120Z,0.00
2018-07-31T19:39:03.147Z,0.00
2018-07-31T19:40:03.103Z,0.00
2018-07-31T19:41:03.088Z,0.00
2018-07-31T19:42:03.140Z,0.00
2018-07-31T19:43:03.167Z,0.00
2018-07-31T19:44:03.102Z,0.00
2018-07-31T19:45:03.054Z,0.00
2018-07-31T19:46:03.116Z,0.00
2018-07-31T19:47:03.025Z,0.00
2018-07-31T19:48:03.036Z,0.00
2018-07-31T19:49:03.042Z,0.00
2018-07-31T19:50:02.990Z,0.00
2018-07-31T19:51:03.023Z,0.00
2018-07-31T19:52:03.015Z,0.00
2018-07-31T19:53:02.968Z,0.00
2018-07-31T19:54:03.036Z,0.00
2018-07-31T19:55:03.028Z,0.00
2018-07-31T19:56:02.928Z,0.00
2018-07-31T19:57:02.923Z,0.00
2018-07-31T19:58:02.908Z,0.00
2018-07-31T19:59:02.933Z,0.00
2018-07-31T20:00:02.880Z,0.00
2018-07-31T20:01:02.913Z,0.00
2018-07-31T20:02:02.866Z,0.00
2018-07-31T20:03:02.851Z,0.00
2018-07-31T20:04:02.987Z,0.00
2018-07-31T20:05:02.824Z,0.00
2018-07-31T20:06:02.823Z,0.00
2018-07-31T20:07:02.814Z,0.00
2018-07-31T20:08:02.806Z,0.00
2018-07-31T20:09:02.818Z,0.00
2018-07-31T20:10:02.881Z,0.00
2018-07-31T20:11:02.795Z,0.00
2018-07-31T20:12:02.757Z,0.00
2018-07-31T20:13:02.753Z,0.00
2018-07-31T20:14:02.770Z,0.00
2018-07-31T20:15:02.719Z,0.00
2018-07-31T20:16:02.713Z,0.00
2018-07-31T20:17:02.701Z,0.00
2018-07-31T20:18:02.685Z,0.00
2018-07-31T20:19:02.702Z,0.00
2018-07-31T20:20:02.672Z,0.00
2018-07-31T20:21:02.729Z,0.00
2018-07-31T20:22:02.650Z,0.00
2018-07-31T20:23:02.650Z,0.00
2018-07-31T20:24:02.623Z,0.00
2018-07-31T20:25:02.640Z,0.00
2018-07-31T20:26:02.680Z,0.00
2018-07-31T20:27:02.584Z,0.00
2018-07-31T20:28:02.576Z,0.00
2018-07-31T20:29:02.571Z,0.00
2018-07-31T20:30:02.596Z,0.00
2018-07-31T20:31:02.568Z,0.00
2018-07-31T20:32:02.532Z,0.00
2018-07-31T20:33:02.559Z,0.00
2018-07-31T20:34:02.564Z,0.00
2018-07-31T20:35:02.508Z,0.00
2018-07-31T20:36:02.497Z,0.00
2018-07-31T20:37:02.483Z,0.00
2018-07-31T20:38:02.527Z,0.00
2018-07-31T20:39:02.457Z,0.00
2018-07-31T20:40:02.451Z,0.00
2018-07-31T20:41:02.436Z,0.00
2018-07-31T20:42:02.470Z,0.00
2018-07-31T20:43:02.415Z,0.00
2018-07-31T20:44:02.416Z,0.00
2018-07-31T20:45:02.393Z,0.00
2018-07-31T20:46:02.386Z,0.00
2018-07-31T20:47:02.463Z,0.00
2018-07-31T20:48:02.355Z,0.00
2018-07-31T20:49:02.347Z,0.00
2018-07-31T20:50:02.400Z,0.00
2018-07-31T20:51:02.328Z,0.00
2018-07-31T20:52:02.347Z,0.00
2018-07-31T20:53:02.303Z,0.00
2018-07-31T20:54:02.327Z,0.00
2018-07-31T20:55:02.286Z,0.00
2018-07-31T20:56:02.267Z,0.00
2018-07-31T20:57:02.258Z,0.00
2018-07-31T20:58:02.251Z,0.00
2018-07-31T20:59:02.276Z,0.00
2018-07-31T21:00:02.266Z,0.00
2018-07-31T21:01:02.216Z,0.00
2018-07-31T21:02:02.244Z,0.00
2018-07-31T21:03:02.197Z,0.00
2018-07-31T21:04:02.190Z,0.00
2018-07-31T21:05:02.174Z,0.00
2018-07-31T21:06:02.298Z,0.00
2018-07-31T21:07:02.161Z,0.00
2018-07-31T21:08:02.140Z,0.00
2018-07-31T21:09:02.185Z,0.00
2018-07-31T21:10:02.128Z,0.00
2018-07-31T21:11:02.140Z,0.00
2018-07-31T21:12:02.090Z,0.00
2018-07-31T21:13:02.089Z,0.00
2018-07-31T21:14:02.074Z,0.00
2018-07-31T21:15:02.093Z,0.00
2018-07-31T21:16:02.099Z,0.00
2018-07-31T21:17:02.054Z,0.00
2018-07-31T21:18:02.072Z,0.00
2018-07-31T21:19:02.124Z,0.00
2018-07-31T21:20:02.040Z,0.00
2018-07-31T21:21:02.011Z,0.00
2018-07-31T21:22:02.038Z,0.00
2018-07-31T21:23:01.981Z,0.00
2018-07-31T21:24:01.974Z,0.00
2018-07-31T21:25:01.986Z,0.00
2018-07-31T21:26:01.985Z,0.00
2018-07-31T21:27:01.979Z,0.00
2018-07-31T21:28:01.928Z,0.00
2018-07-31T21:29:01.915Z,0.00
2018-07-31T21:30:01.904Z,0.00
2018-07-31T21:31:01.892Z,0.00
2018-07-31T21:32:01.908Z,0.00
2018-07-31T21:33:02.532Z,0.00
2018-07-31T21:34:01.867Z,0.00
2018-07-31T21:35:01.847Z,0.00
2018-07-31T21:36:01.897Z,0.00
2018-07-31T21:37:01.828Z,0.00
2018-07-31T21:38:01.866Z,0.00
2018-07-31T21:39:01.810Z,0.00
2018-07-31T21:40:01.791Z,0.00
2018-07-31T21:41:01.786Z,0.00
2018-07-31T21:42:01.774Z,0.00
2018-07-31T21:43:01.797Z,0.00
2018-07-31T21:44:01.752Z,0.00
2018-07-31T21:45:01.742Z,0.00
2018-07-31T21:46:01.732Z,0.00
2018-07-31T21:47:01.726Z,0.00
2018-07-31T21:48:01.802Z,0.00
2018-07-31T21:49:01.697Z,0.00
2018-07-31T21:50:01.698Z,0.00
2018-07-31T21:51:01.676Z,0.00
2018-07-31T21:52:01.685Z,0.00
2018-07-31T21:53:01.682Z,0.00
2018-07-31T21:54:01.674Z,0.00
2018-07-31T21:55:01.734Z,0.00
2018-07-31T21:56:01.621Z,0.00
2018-07-31T21:57:01.642Z,0.00
2018-07-31T21:58:01.598Z,0.00
2018-07-31T21:59:01.625Z,0.00
2018-07-31T22:00:01.672Z,0.00
2018-07-31T22:01:01.572Z,0.00
2018-07-31T22:02:01.557Z,0.00
2018-07-31T22:03:01.612Z,0.00
2018-07-31T22:04:01.534Z,0.00
2018-07-31T22:05:01.516Z,0.00
2018-07-31T22:06:01.508Z,0.00
2018-07-31T22:07:01.499Z,0.00
2018-07-31T22:08:01.519Z,0.00
2018-07-31T22:09:01.520Z,0.00
2018-07-31T22:10:01.466Z,0.00
2018-07-31T22:11:08.553Z,0.00
2018-07-31T22:12:01.448Z,0.00
2018-07-31T22:13:01.437Z,0.00
2018-07-31T22:14:01.492Z,0.00
2018-07-31T22:15:01.416Z,0.00
2018-07-31T22:16:01.402Z,0.00
2018-07-31T22:17:01.394Z,0.00
2018-07-31T22:18:01.384Z,0.00
2018-07-31T22:19:01.441Z,0.00
2018-07-31T22:20:01.360Z,0.00
2018-07-31T22:21:01.349Z,0.00
2018-07-31T22:22:01.349Z,0.00
2018-07-31T22:23:01.328Z,0.00
2018-07-31T22:24:01.362Z,0.00
2018-07-31T22:25:01.427Z,0.00
2018-07-31T22:26:01.289Z,0.00
2018-07-31T22:27:01.300Z,0.00
2018-07-31T22:28:01.339Z,0.00
2018-07-31T22:29:01.299Z,0.00
2018-07-31T22:30:01.255Z,0.00
2018-07-31T22:31:01.243Z,0.00
2018-07-31T22:32:01.254Z,0.00
2018-07-31T22:33:01.220Z,0.00
2018-07-31T22:34:01.207Z,0.00
2018-07-31T22:35:01.249Z,0.00
2018-07-31T22:36:01.179Z,0.00
2018-07-31T22:37:01.211Z,0.00
2018-07-31T22:38:01.164Z,0.00
2018-07-31T22:39:01.152Z,0.00
2018-07-31T22:40:01.141Z,0.00
2018-07-31T22:41:01.129Z,0.00
2018-07-31T22:42:01.143Z,0.00
2018-07-31T22:43:01.171Z,0.00
2018-07-31T22:44:01.098Z,0.00
2018-07-31T22:45:01.077Z,0.00
2018-07-31T22:46:01.095Z,0.00
2018-07-31T22:47:01.061Z,0.00
2018-07-31T22:48:01.080Z,0.00
2018-07-31T22:49:01.039Z,0.00
2018-07-31T22:50:01.057Z,0.00
2018-07-31T22:51:01.018Z,0.00
2018-07-31T22:52:01.003Z,0.00
2018-07-31T22:53:00.992Z,0.00
2018-07-31T22:54:00.985Z,0.00
2018-07-31T22:55:01.011Z,0.00
2018-07-31T22:56:01.092Z,0.00
2018-07-31T22:57:00.995Z,0.00
2018-07-31T22:58:01.023Z,0.00
2018-07-31T22:59:00.972Z,0.00
2018-07-31T23:00:00.920Z,0.00
2018-07-31T23:01:00.928Z,0.00
2018-07-31T23:02:00.918Z,0.00
2018-07-31T23:03:00.892Z,0.00
2018-07-31T23:04:00.871Z,0.00
2018-07-31T23:05:00.860Z,0.00
2018-07-31T23:06:00.884Z,0.00
2018-07-31T23:07:00.839Z,0.00
2018-07-31T23:08:00.829Z,0.00
2018-07-31T23:09:00.840Z,0.00
2018-07-31T23:10:00.801Z,0.00
2018-07-31T23:11:00.791Z,0.00
2018-07-31T23:12:00.785Z,0.00
2018-07-31T23:13:00.776Z,0.00
2018-07-31T23:14:00.867Z,0.00
2018-07-31T23:15:00.806Z,0.00
2018-07-31T23:16:00.737Z,0.00
2018-07-31T23:17:00.721Z,0.00
2018-07-31T23:18:00.716Z,0.00
2018-07-31T23:19:00.731Z,0.00
2018-07-31T23:20:00.699Z,0.00
2018-07-31T23:21:00.717Z,0.00
2018-07-31T23:22:00.671Z,0.00
2018-07-31T23:23:00.664Z,0.00
2018-07-31T23:24:00.651Z,0.00
2018-07-31T23:25:00.638Z,0.00
2018-07-31T23:26:00.666Z,0.00
2018-07-31T23:27:00.616Z,0.00
2018-07-31T23:28:00.600Z,0.00
2018-07-31T23:29:00.599Z,0.00
2018-07-31T23:30:00.619Z,0.00
2018-07-31T23:31:00.606Z,0.00
2018-07-31T23:32:00.571Z,0.00
2018-07-31T23:33:00.580Z,0.00
2018-07-31T23:34:00.537Z,0.00
2018-07-31T23:35:00.551Z,0.00
2018-07-31T23:36:00.512Z,0.00
2018-07-31T23:37:00.538Z,0.00
2018-07-31T23:38:00.520Z,0.00
2018-07-31T23:39:00.558Z,0.00
2018-07-31T23:40:00.474Z,0.00
2018-07-31T23:41:00.460Z,0.00
2018-07-31T23:42:00.479Z,0.00
2018-07-31T23:43:00.441Z,0.00
2018-07-31T23:44:00.440Z,0.00
2018-07-31T23:45:00.441Z,0.00
2018-07-31T23:46:00.401Z,0.00
2018-07-31T23:47:00.390Z,0.00
2018-07-31T23:48:00.381Z,0.00
2018-07-31T23:49:00.394Z,0.00
2018-07-31T23:50:00.386Z,0.00
2018-07-31T23:51:00.375Z,0.00
2018-07-31T23:52:00.337Z,0.00
2018-07-31T23:53:00.329Z,0.00
2018-07-31T23:54:00.328Z,0.00
2018-07-31T23:55:00.384Z,0.00
2018-07-31T23:56:00.331Z,0.00
2018-07-31T23:57:00.283Z,0.00
2018-07-31T23:58:00.287Z,0.00
2018-07-31T23:59:00.290Z,0.00
